Time;durP1;ratioP1;P1;durP2;ratioP2;P2;SDS_P1;SDS_P2;PMS_P1;PMS_P2;Temp;Humidity;BMP_temperature;BMP_pressure;BME280_temperature;BME280_humidity;BME280_pressure;Samples;Min_cycle;Max_cycle;Signal;HPM_P1;HPM_P2
2021/05/10 00:01:06;;;;;;;4.68;3.00;;;20.20;61.80;;;;;;5034105;28;20365;-90
2021/05/10 00:03:32;;;;;;;5.25;2.97;;;20.20;62.00;;;;;;5033788;28;20492;-90
2021/05/10 00:05:57;;;;;;;5.50;3.75;;;20.10;62.30;;;;;;5033530;28;20061;-89
2021/05/10 00:08:25;;;;;;;6.55;3.20;;;20.10;62.70;;;;;;5032480;28;20017;-90
2021/05/10 00:10:51;;;;;;;5.43;4.07;;;20.00;62.60;;;;;;5015746;28;20022;-90
2021/05/10 00:13:18;;;;;;;5.45;4.28;;;20.00;63.00;;;;;;5015946;28;20022;-89
2021/05/10 00:15:45;;;;;;;3.78;3.35;;;20.00;63.20;;;;;;5033684;28;20021;-91
2021/05/10 00:18:11;;;;;;;5.68;4.68;;;20.00;63.10;;;;;;5015418;28;20141;-89
2021/05/10 00:20:42;;;;;;;6.65;4.25;;;19.90;63.40;;;;;;5014734;28;20076;-88
2021/05/10 00:23:08;;;;;;;4.65;3.80;;;19.90;63.40;;;;;;5032742;28;20384;-89
2021/05/10 00:25:33;;;;;;;8.07;4.38;;;19.90;63.20;;;;;;5032530;28;20057;-89
2021/05/10 00:27:59;;;;;;;6.18;5.00;;;19.90;63.50;;;;;;5032512;28;21852;-89
2021/05/10 00:30:25;;;;;;;6.00;4.30;;;19.80;63.70;;;;;;5032765;28;20591;-88
2021/05/10 00:32:51;;;;;;;5.47;3.75;;;19.80;63.70;;;;;;5032591;28;20475;-89
2021/05/10 00:35:18;;;;;;;3.67;3.25;;;19.80;63.60;;;;;;5031522;28;20034;-90
2021/05/10 00:37:44;;;;;;;4.45;3.83;;;19.90;63.60;;;;;;5031954;28;20013;-90
2021/05/10 00:40:12;;;;;;;4.05;2.72;;;19.90;63.50;;;;;;5033034;28;20064;-90
2021/05/10 00:42:39;;;;;;;5.03;3.92;;;19.90;63.30;;;;;;5013490;28;20021;-90
2021/05/10 00:45:06;;;;;;;5.45;3.70;;;19.90;63.40;;;;;;5031591;28;20075;-90
2021/05/10 00:47:32;;;;;;;4.15;3.30;;;19.90;63.40;;;;;;5031490;28;20029;-90
2021/05/10 00:49:58;;;;;;;4.95;3.95;;;19.90;63.30;;;;;;5014185;28;20407;-90
2021/05/10 00:52:24;;;;;;;5.05;3.50;;;19.90;63.40;;;;;;5032069;28;20143;-90
2021/05/10 00:54:51;;;;;;;3.13;2.80;;;19.90;63.20;;;;;;5031711;28;20048;-91
2021/05/10 00:57:18;;;;;;;3.97;3.00;;;20.00;63.00;;;;;;5031013;28;20383;-90
2021/05/10 00:59:44;;;;;;;4.20;2.80;;;20.00;62.80;;;;;;5031317;28;20133;-90
2021/05/10 01:02:10;;;;;;;2.70;2.15;;;20.00;62.50;;;;;;5014001;28;20496;-90
2021/05/10 01:04:35;;;;;;;3.83;2.53;;;20.10;62.10;;;;;;5012892;28;20026;-90
2021/05/10 01:07:01;;;;;;;2.20;2.00;;;20.20;61.90;;;;;;5013640;28;20235;-88
2021/05/10 01:09:27;;;;;;;4.40;2.67;;;20.30;61.60;;;;;;5031297;28;20105;-90
2021/05/10 01:11:52;;;;;;;3.00;2.10;;;20.20;61.50;;;;;;5032048;28;20021;-90
2021/05/10 01:14:18;;;;;;;2.83;2.17;;;20.30;61.40;;;;;;5030577;28;20100;-90
2021/05/10 01:16:44;;;;;;;2.65;2.17;;;20.30;61.10;;;;;;5013403;28;20021;-90
2021/05/10 01:19:10;;;;;;;1.50;1.40;;;20.40;60.90;;;;;;5013865;28;20029;-90
2021/05/10 01:21:36;;;;;;;3.70;1.73;;;20.40;60.80;;;;;;5013902;28;20037;-90
2021/05/10 01:24:02;;;;;;;2.08;1.88;;;20.40;60.80;;;;;;5013011;28;20459;-90
2021/05/10 01:26:28;;;;;;;2.42;1.90;;;20.40;60.70;;;;;;5030629;28;20034;-90
2021/05/10 01:28:54;;;;;;;2.60;1.88;;;20.50;60.60;;;;;;5030534;28;20472;-90
2021/05/10 01:31:20;;;;;;;2.03;1.85;;;20.50;60.50;;;;;;5013931;28;20021;-90
2021/05/10 01:33:45;;;;;;;2.00;1.67;;;20.50;60.30;;;;;;5030693;28;20025;-90
2021/05/10 01:36:12;;;;;;;3.28;1.70;;;20.50;60.30;;;;;;5030625;28;20607;-90
2021/05/10 01:38:38;;;;;;;2.00;1.80;;;20.50;60.20;;;;;;5031538;28;20394;-90
2021/05/10 01:41:04;;;;;;;1.88;1.63;;;20.40;60.30;;;;;;5012471;28;20033;-90
2021/05/10 01:43:30;;;;;;;2.33;1.90;;;20.40;60.30;;;;;;5031033;28;20172;-90
2021/05/10 01:45:55;;;;;;;2.72;1.95;;;20.40;60.30;;;;;;5030710;28;20135;-90
2021/05/10 01:48:21;;;;;;;2.13;1.92;;;20.30;60.40;;;;;;5031031;28;20045;-90
2021/05/10 01:50:48;;;;;;;2.33;1.98;;;20.30;60.50;;;;;;5031019;28;20125;-90
2021/05/10 01:53:14;;;;;;;3.70;2.20;;;20.30;60.50;;;;;;5030929;28;20034;-89
2021/05/10 01:55:41;;;;;;;2.25;1.90;;;20.20;60.50;;;;;;5029546;28;20014;-89
2021/05/10 01:58:08;;;;;;;2.08;1.88;;;20.20;60.50;;;;;;5030381;28;20033;-91
2021/05/10 02:00:47;;;;;;;2.50;1.63;;;20.20;60.40;;;;;;5030761;28;20047;-90
2021/05/10 02:03:18;;;;;;;2.38;1.40;;;20.20;60.40;;;;;;5012417;28;20033;-91
2021/05/10 02:05:45;;;;;;;2.22;1.60;;;20.20;60.40;;;;;;5030149;28;20471;-90
2021/05/10 02:08:12;;;;;;;1.30;1.20;;;20.20;60.30;;;;;;5030154;28;20024;-89
2021/05/10 02:10:39;;;;;;;1.90;1.48;;;20.30;60.20;;;;;;5030588;28;20037;-90
2021/05/10 02:13:13;;;;;;;1.67;1.48;;;20.30;60.10;;;;;;5012906;28;20061;-90
2021/05/10 02:15:42;;;;;;;2.88;1.70;;;20.30;60.00;;;;;;5026512;28;20385;-91
2021/05/10 02:18:09;;;;;;;1.75;1.38;;;20.30;60.00;;;;;;5013405;28;20108;-90
2021/05/10 02:20:35;;;;;;;2.20;1.65;;;20.30;60.00;;;;;;5030869;28;20033;-92
2021/05/10 02:23:04;;;;;;;1.90;1.58;;;20.30;59.90;;;;;;5031568;28;20040;-93
2021/05/10 02:25:32;;;;;;;1.77;1.45;;;20.30;59.90;;;;;;5013302;28;20030;-91
2021/05/10 02:27:59;;;;;;;2.95;1.60;;;20.30;59.90;;;;;;5013481;28;20060;-91
2021/05/10 02:30:26;;;;;;;2.67;1.77;;;20.30;59.90;;;;;;5030543;28;20032;-90
2021/05/10 02:32:53;;;;;;;2.30;1.60;;;20.20;59.90;;;;;;5012810;28;20056;-91
2021/05/10 02:35:20;;;;;;;1.92;1.27;;;20.20;60.00;;;;;;5029410;28;20116;-91
2021/05/10 02:37:46;;;;;;;1.35;1.25;;;20.20;60.10;;;;;;5031114;28;20018;-91
2021/05/10 02:40:12;;;;;;;1.50;1.40;;;20.10;60.20;;;;;;5030446;28;20041;-89
2021/05/10 02:42:38;;;;;;;3.35;1.70;;;20.10;60.40;;;;;;5012126;28;20040;-88
2021/05/10 02:45:05;;;;;;;1.60;1.38;;;20.00;60.50;;;;;;5029149;28;20021;-91
2021/05/10 02:47:32;;;;;;;1.65;1.40;;;20.00;60.50;;;;;;5029899;28;20021;-91
2021/05/10 02:49:57;;;;;;;1.48;1.33;;;20.00;60.50;;;;;;5029979;28;20022;-91
2021/05/10 02:52:24;;;;;;;1.63;1.40;;;20.00;60.40;;;;;;5031142;28;20490;-91
2021/05/10 02:54:50;;;;;;;1.52;1.38;;;19.90;60.30;;;;;;5029485;28;20025;-90
2021/05/10 02:57:16;;;;;;;2.83;1.30;;;20.00;60.30;;;;;;5029870;28;20032;-91
2021/05/10 02:59:43;;;;;;;1.25;1.10;;;20.00;60.20;;;;;;5030533;28;20034;-91
2021/05/10 03:02:08;;;;;;;1.80;1.50;;;20.00;60.00;;;;;;5030703;28;20045;-90
2021/05/10 03:04:34;;;;;;;2.25;1.38;;;19.90;60.00;;;;;;5029180;28;20510;-89
2021/05/10 03:06:59;;;;;;;2.78;1.60;;;19.90;60.00;;;;;;5030223;28;20029;-90
2021/05/10 03:09:25;;;;;;;1.83;1.17;;;19.90;59.90;;;;;;5016175;28;20029;-89
2021/05/10 03:11:50;;;;;;;1.25;1.08;;;19.90;59.80;;;;;;5033794;28;20451;-89
2021/05/10 03:14:16;;;;;;;1.45;1.33;;;19.90;59.70;;;;;;5033076;28;20160;-89
2021/05/10 03:16:41;;;;;;;1.67;1.30;;;19.90;59.70;;;;;;5033491;28;20527;-89
2021/05/10 03:19:10;;;;;;;1.55;1.10;;;19.90;59.70;;;;;;5033191;28;20076;-89
2021/05/10 03:21:40;;;;;;;2.38;1.50;;;19.90;59.60;;;;;;5016019;28;20545;-89
2021/05/10 03:24:07;;;;;;;1.05;1.02;;;19.90;59.30;;;;;;5033147;28;20083;-90
2021/05/10 03:26:37;;;;;;;3.10;1.38;;;19.90;59.20;;;;;;5014498;28;20060;-89
2021/05/10 03:29:04;;;;;;;2.00;1.30;;;19.80;59.00;;;;;;5032024;28;20033;-88
2021/05/10 03:31:30;;;;;;;1.98;1.40;;;19.80;58.20;;;;;;5033216;28;20567;-89
2021/05/10 03:33:56;;;;;;;1.65;1.20;;;19.90;57.90;;;;;;5032079;28;20515;-89
2021/05/10 03:36:21;;;;;;;3.30;0.90;;;19.90;57.80;;;;;;5032755;28;20033;-89
2021/05/10 03:38:47;;;;;;;2.40;1.20;;;19.90;57.80;;;;;;5033329;28;20472;-88
2021/05/10 03:41:12;;;;;;;1.65;1.50;;;19.90;57.70;;;;;;5032430;28;20523;-89
2021/05/10 03:43:38;;;;;;;1.65;1.13;;;19.80;57.50;;;;;;5032520;28;20044;-88
2021/05/10 03:46:04;;;;;;;1.30;0.90;;;19.80;57.50;;;;;;5032804;28;20045;-90
2021/05/10 03:48:29;;;;;;;1.77;1.20;;;19.90;57.50;;;;;;5015802;28;20032;-90
2021/05/10 03:50:55;;;;;;;2.88;1.23;;;19.90;57.40;;;;;;5033009;28;20022;-89
2021/05/10 03:53:21;;;;;;;2.35;1.30;;;19.90;57.50;;;;;;5032911;28;20030;-90
2021/05/10 03:55:47;;;;;;;2.47;1.05;;;19.80;57.20;;;;;;5015147;28;20030;-91
2021/05/10 03:58:13;;;;;;;0.75;0.75;;;19.80;57.00;;;;;;5015459;28;20176;-91
2021/05/10 04:00:38;;;;;;;2.45;1.00;;;19.80;57.00;;;;;;5014886;28;20053;-91
2021/05/10 04:03:06;;;;;;;1.80;1.00;;;19.90;57.00;;;;;;5033621;28;20029;-92
2021/05/10 04:11:22;;;;;;;1.42;1.10;;;19.90;56.30;;;;;;5032236;28;20064;-89
2021/05/10 04:13:48;;;;;;;2.45;1.20;;;19.90;55.90;;;;;;5017910;28;20087;-88
2021/05/10 04:16:14;;;;;;;1.60;1.30;;;20.00;55.40;;;;;;5014264;28;20026;-89
2021/05/10 04:18:39;;;;;;;1.70;1.10;;;20.00;55.00;;;;;;5032280;28;20050;-89
2021/05/10 04:21:05;;;;;;;2.28;1.10;;;20.00;54.80;;;;;;5032080;28;20033;-90
2021/05/10 04:23:30;;;;;;;2.25;1.30;;;20.10;54.30;;;;;;5032447;28;20032;-89
2021/05/10 04:25:56;;;;;;;2.17;1.15;;;20.20;53.60;;;;;;5032195;28;20025;-90
2021/05/10 04:28:23;;;;;;;3.58;1.20;;;20.20;53.30;;;;;;5014433;28;20028;-90
2021/05/10 04:30:50;;;;;;;2.67;1.00;;;20.30;53.10;;;;;;5014447;28;20026;-92
2021/05/10 04:33:24;;;;;;;1.63;0.80;;;20.30;52.90;;;;;;5033322;28;20029;-91
2021/05/10 04:35:49;;;;;;;2.22;1.08;;;20.40;52.90;;;;;;5031412;28;20530;-90
2021/05/10 04:38:15;;;;;;;2.58;1.02;;;20.40;52.30;;;;;;5031822;28;20026;-90
2021/05/10 04:40:40;;;;;;;2.95;1.00;;;20.40;52.10;;;;;;5031249;28;20083;-89
2021/05/10 04:43:07;;;;;;;3.08;1.15;;;20.50;51.80;;;;;;5013944;28;20026;-88
2021/05/10 04:45:33;;;;;;;3.50;1.45;;;20.50;51.60;;;;;;5031573;28;20363;-90
2021/05/10 04:47:59;;;;;;;4.07;1.10;;;20.60;51.00;;;;;;5013665;28;20017;-90
2021/05/10 04:50:26;;;;;;;3.10;1.20;;;20.60;51.20;;;;;;5014740;28;20033;-90
2021/05/10 04:52:52;;;;;;;2.22;1.10;;;20.70;50.90;;;;;;5013950;28;20025;-90
2021/05/10 04:55:17;;;;;;;4.55;1.10;;;20.70;50.90;;;;;;5031958;28;20072;-91
2021/05/10 04:57:44;;;;;;;1.70;1.00;;;20.80;50.90;;;;;;5032668;28;20018;-89
2021/05/10 05:00:12;;;;;;;2.25;1.05;;;20.80;50.80;;;;;;5032351;28;20057;-91
2021/05/10 05:02:38;;;;;;;2.83;1.25;;;20.80;50.90;;;;;;5014937;28;20021;-89
2021/05/10 05:05:08;;;;;;;3.00;1.27;;;20.80;50.70;;;;;;5031943;28;20026;-89
2021/05/10 05:07:34;;;;;;;4.38;1.20;;;20.80;51.00;;;;;;5031492;28;20021;-88
2021/05/10 05:09:59;;;;;;;2.60;1.30;;;20.70;51.10;;;;;;5031803;28;20040;-89
2021/05/10 05:12:25;;;;;;;6.32;1.30;;;20.70;51.70;;;;;;5031294;28;20033;-88
2021/05/10 05:14:51;;;;;;;3.67;1.50;;;20.70;51.70;;;;;;5032749;28;20024;-89
2021/05/10 05:17:17;;;;;;;1.83;1.15;;;20.60;51.40;;;;;;5031461;28;20025;-89
2021/05/10 05:19:42;;;;;;;4.47;1.42;;;20.60;51.70;;;;;;5031834;28;20357;-88
2021/05/10 05:22:08;;;;;;;2.88;1.20;;;20.60;51.70;;;;;;5030781;28;20448;-88
2021/05/10 05:24:35;;;;;;;3.47;1.10;;;20.60;51.80;;;;;;5013483;28;20037;-89
2021/05/10 05:27:01;;;;;;;4.32;1.17;;;20.60;52.20;;;;;;5030646;28;20021;-88
2021/05/10 05:29:26;;;;;;;2.97;1.10;;;20.60;52.50;;;;;;5013168;28;20037;-88
2021/05/10 05:31:54;;;;;;;3.50;1.20;;;20.60;52.70;;;;;;5030246;28;20041;-89
2021/05/10 05:34:21;;;;;;;4.93;1.38;;;20.50;53.00;;;;;;5012996;28;20161;-89
2021/05/10 05:36:47;;;;;;;1.65;1.17;;;20.50;53.30;;;;;;5031055;28;20018;-92
2021/05/10 05:39:13;;;;;;;4.53;1.27;;;20.50;53.70;;;;;;5015301;28;20468;-93
2021/05/10 05:41:39;;;;;;;4.85;1.20;;;20.50;54.10;;;;;;5016113;28;20056;-91
2021/05/10 05:44:06;;;;;;;2.67;0.90;;;20.40;54.40;;;;;;5015139;28;20026;-92
2021/05/10 05:46:39;;;;;;;3.05;1.20;;;20.40;54.60;;;;;;5032714;28;20550;-90
2021/05/10 05:49:05;;;;;;;3.30;1.02;;;20.30;55.00;;;;;;5100299;22;20512;-96
2021/05/10 05:51:30;;;;;;;2.00;0.90;;;20.30;55.20;;;;;;5076264;28;20036;-95
2021/05/10 05:53:56;;;;;;;3.83;1.10;;;20.30;55.50;;;;;;5052907;28;20025;-92
2021/05/10 05:56:22;;;;;;;5.45;1.13;;;20.20;55.70;;;;;;5046266;28;20035;-93
2021/05/10 05:58:49;;;;;;;1.15;0.80;;;20.20;56.20;;;;;;5014173;28;20548;-92
2021/05/10 06:01:15;;;;;;;2.92;1.10;;;20.10;56.30;;;;;;5020535;28;20037;-94
2021/05/10 06:03:40;;;;;;;1.25;0.68;;;20.10;56.90;;;;;;5032905;28;20499;-92
2021/05/10 06:06:06;;;;;;;1.95;0.90;;;20.00;57.00;;;;;;5032978;28;20017;-93
2021/05/10 06:08:32;;;;;;;2.35;1.10;;;19.90;58.00;;;;;;5015249;28;20492;-93
2021/05/10 06:10:57;;;;;;;1.15;0.80;;;19.90;57.50;;;;;;5007867;28;20030;-93
2021/05/10 06:13:23;;;;;;;3.70;1.17;;;19.80;57.50;;;;;;5027905;28;20031;-93
2021/05/10 06:15:49;;;;;;;1.48;0.80;;;19.80;57.70;;;;;;5032605;28;20022;-94
2021/05/10 06:18:14;;;;;;;3.05;1.00;;;19.90;57.60;;;;;;5015116;28;20072;-95
2021/05/10 06:20:40;;;;;;;1.67;0.63;;;20.10;57.50;;;;;;5025995;28;20029;-96
2021/05/10 06:23:06;;;;;;;2.67;0.80;;;20.90;56.30;;;;;;5011250;28;20108;-94
2021/05/10 06:25:32;;;;;;;0.90;0.80;;;22.30;53.50;;;;;;5028579;28;20037;-96
2021/05/10 06:27:57;;;;;;;1.55;0.63;;;23.40;50.80;;;;;;5011345;28;20082;-95
2021/05/10 06:30:23;;;;;;;0.80;0.52;;;24.40;48.40;;;;;;5020879;28;20032;-93
2021/05/10 06:32:52;;;;;;;1.75;0.52;;;24.40;46.90;;;;;;5026649;28;20041;-93
2021/05/10 06:35:18;;;;;;;0.95;0.43;;;23.70;47.20;;;;;;5005428;28;20026;-94
2021/05/10 06:37:43;;;;;;;0.98;0.40;;;22.60;48.80;;;;;;5013488;28;20499;-93
2021/05/10 06:40:10;;;;;;;3.40;0.60;;;22.30;50.30;;;;;;5031540;28;20129;-93
2021/05/10 06:42:36;;;;;;;0.30;0.30;;;22.20;49.90;;;;;;5031036;28;20017;-93
2021/05/10 06:45:05;;;;;;;0.30;0.20;;;21.70;51.10;;;;;;5003978;28;20388;-92
2021/05/10 06:47:31;;;;;;;0.30;0.30;;;21.90;51.70;;;;;;5017389;28;20503;-93
2021/05/10 06:49:56;;;;;;;0.63;0.43;;;22.50;51.20;;;;;;5016294;28;20036;-95
2021/05/10 06:52:22;;;;;;;0.70;0.30;;;22.50;50.50;;;;;;5029994;28;20041;-93
2021/05/10 06:54:47;;;;;;;1.42;0.40;;;22.10;51.00;;;;;;5019988;28;20014;-93
2021/05/10 06:57:13;;;;;;;0.75;0.43;;;21.60;51.80;;;;;;5028634;28;20025;-93
2021/05/10 06:59:39;;;;;;;0.95;0.50;;;21.30;52.40;;;;;;5030417;28;20038;-93
2021/05/10 07:02:06;;;;;;;0.65;0.30;;;21.10;52.70;;;;;;5012835;28;20021;-93
2021/05/10 07:04:32;;;;;;;0.50;0.40;;;20.90;53.30;;;;;;5031465;28;20029;-93
2021/05/10 07:06:58;;;;;;;0.30;0.20;;;20.90;53.40;;;;;;5031518;28;20051;-93
2021/05/10 07:09:23;;;;;;;0.88;0.40;;;21.00;53.30;;;;;;5025913;28;20021;-93
2021/05/10 07:11:49;;;;;;;1.38;0.30;;;20.90;53.60;;;;;;5024989;28;20026;-93
2021/05/10 07:14:14;;;;;;;0.47;0.40;;;20.90;53.90;;;;;;5031115;28;20014;-93
2021/05/10 07:16:40;;;;;;;2.03;0.50;;;20.80;54.00;;;;;;5029578;28;20030;-94
2021/05/10 07:19:06;;;;;;;0.68;0.40;;;20.80;54.30;;;;;;5014205;28;20021;-96
2021/05/10 07:21:31;;;;;;;1.30;0.50;;;21.20;54.20;;;;;;5035268;28;20029;-96
2021/05/10 07:23:57;;;;;;;1.10;0.40;;;21.00;54.00;;;;;;5019657;28;20092;-95
2021/05/10 07:26:23;;;;;;;0.95;0.65;;;21.00;54.20;;;;;;5031784;28;20026;-94
2021/05/10 07:28:48;;;;;;;0.75;0.68;;;21.30;54.40;;;;;;5014450;28;20029;-96
2021/05/10 07:31:14;;;;;;;1.90;0.70;;;21.30;54.50;;;;;;5013603;28;20029;-94
2021/05/10 07:33:40;;;;;;;1.85;0.85;;;21.20;53.90;;;;;;5031399;28;20448;-95
2021/05/10 07:36:05;;;;;;;2.03;0.80;;;21.20;53.90;;;;;;5032377;28;20049;-95
2021/05/10 07:38:31;;;;;;;2.92;0.98;;;21.00;54.00;;;;;;5030701;28;20855;-94
2021/05/10 07:40:57;;;;;;;1.60;0.70;;;21.00;53.70;;;;;;5031263;28;20091;-94
2021/05/10 07:43:23;;;;;;;1.58;0.60;;;21.20;53.90;;;;;;5030420;28;20021;-92
2021/05/10 07:45:48;;;;;;;1.40;0.82;;;21.60;53.60;;;;;;5025570;28;20021;-92
2021/05/10 07:48:14;;;;;;;1.35;0.80;;;21.60;52.80;;;;;;5030218;28;20611;-92
2021/05/10 07:50:40;;;;;;;1.98;1.00;;;21.50;52.80;;;;;;5030337;28;20033;-92
2021/05/10 07:53:06;;;;;;;1.67;0.93;;;21.30;53.00;;;;;;5030818;28;20079;-93
2021/05/10 07:55:33;;;;;;;1.38;0.70;;;21.10;53.60;;;;;;5034436;28;20119;-94
2021/05/10 07:57:59;;;;;;;2.95;1.08;;;20.90;53.90;;;;;;5006314;28;20065;-92
2021/05/10 08:00:29;;;;;;;1.95;1.00;;;20.70;54.40;;;;;;5033978;28;20065;-89
2021/05/10 08:02:57;;;;;;;2.13;1.00;;;20.50;55.00;;;;;;5036534;28;20017;-93
2021/05/10 08:05:23;;;;;;;3.45;0.93;;;20.30;55.50;;;;;;5016076;28;20086;-94
2021/05/10 08:07:49;;;;;;;1.15;0.80;;;20.20;55.90;;;;;;5017096;28;20057;-95
2021/05/10 08:10:15;;;;;;;1.90;1.10;;;20.10;56.30;;;;;;5016303;28;20026;-93
2021/05/10 08:12:40;;;;;;;1.45;1.00;;;20.10;56.60;;;;;;5016307;28;20024;-94
2021/05/10 08:15:06;;;;;;;1.20;0.70;;;20.00;56.80;;;;;;5033887;28;20120;-95
2021/05/10 08:17:34;;;;;;;1.45;0.70;;;20.00;56.90;;;;;;5034412;28;20476;-95
2021/05/10 08:20:00;;;;;;;1.63;1.00;;;20.00;57.00;;;;;;5016564;28;20419;-94
2021/05/10 08:22:25;;;;;;;2.40;1.20;;;20.00;57.30;;;;;;5034611;28;20079;-94
2021/05/10 08:24:51;;;;;;;1.88;1.10;;;19.90;57.60;;;;;;5033221;28;20021;-93
2021/05/10 08:27:17;;;;;;;1.10;0.95;;;19.80;57.80;;;;;;5033489;28;20037;-93
2021/05/10 08:29:42;;;;;;;1.65;0.70;;;19.80;58.00;;;;;;5033919;28;20025;-94
2021/05/10 08:32:08;;;;;;;0.85;0.85;;;19.70;58.10;;;;;;5034284;28;20033;-94
2021/05/10 08:34:33;;;;;;;1.02;0.88;;;19.80;58.20;;;;;;5030507;28;20033;-96
2021/05/10 08:36:59;;;;;;;0.93;0.70;;;19.80;58.40;;;;;;5017450;28;20022;-94
2021/05/10 08:39:25;;;;;;;1.45;0.90;;;19.90;58.20;;;;;;5016370;28;20029;-96
2021/05/10 08:41:50;;;;;;;1.40;0.90;;;19.80;58.40;;;;;;5017740;28;20160;-96
2021/05/10 08:44:16;;;;;;;1.90;1.00;;;19.70;59.00;;;;;;5016733;28;20018;-96
2021/05/10 08:46:43;;;;;;;1.42;0.93;;;19.50;60.30;;;;;;5016488;28;20030;-94
2021/05/10 08:49:09;;;;;;;1.13;1.00;;;19.20;61.80;;;;;;5015405;28;20021;-93
2021/05/10 08:51:37;;;;;;;0.80;0.80;;;19.00;63.10;;;;;;5020923;28;20121;-94
2021/05/10 08:54:03;;;;;;;1.00;0.80;;;18.90;64.10;;;;;;5048778;28;20029;-94
2021/05/10 08:56:29;;;;;;;2.67;1.02;;;18.90;64.50;;;;;;5044182;28;20043;-95
2021/05/10 08:58:55;;;;;;;1.17;1.02;;;18.90;64.80;;;;;;5028976;28;20387;-94
2021/05/10 09:01:21;;;;;;;1.15;1.00;;;18.90;65.20;;;;;;5043285;28;20116;-95
2021/05/10 09:03:49;;;;;;;1.00;0.90;;;18.90;65.10;;;;;;5034808;28;20467;-96
2021/05/10 09:06:30;;;;;;;0.90;0.80;;;18.90;65.00;;;;;;5033902;28;20028;-96
2021/05/10 09:09:08;;;;;;;1.85;1.00;;;18.90;64.90;;;;;;5034299;28;20067;-96
2021/05/10 09:11:34;;;;;;;1.30;1.08;;;18.80;65.00;;;;;;5016359;28;20116;-96
2021/05/10 09:14:00;;;;;;;1.85;1.20;;;18.80;64.80;;;;;;5032875;28;20018;-96
2021/05/10 09:16:26;;;;;;;2.88;1.30;;;18.80;64.60;;;;;;5015860;28;20032;-96
2021/05/10 09:18:57;;;;;;;1.20;1.10;;;18.80;64.40;;;;;;5034801;28;20350;-96
2021/05/10 09:21:28;;;;;;;3.13;1.10;;;18.80;63.90;;;;;;5035788;28;20052;-96
2021/05/10 09:23:54;;;;;;;1.45;1.25;;;18.80;63.60;;;;;;5018702;28;20017;-96
2021/05/10 09:26:34;;;;;;;2.25;0.98;;;18.80;63.40;;;;;;5019147;28;20022;-96
2021/05/10 09:29:01;;;;;;;1.73;1.13;;;18.90;63.30;;;;;;5019733;28;20044;-96
2021/05/10 09:31:27;;;;;;;1.20;1.10;;;18.90;63.10;;;;;;5037420;28;20025;-96
2021/05/10 09:33:53;;;;;;;2.58;0.90;;;19.00;62.90;;;;;;5018989;28;20017;-96
2021/05/10 09:36:34;;;;;;;2.22;1.10;;;19.00;62.50;;;;;;5020385;28;20025;-96
2021/05/10 09:39:30;;;;;;;1.52;0.93;;;19.00;62.10;;;;;;5020498;28;20025;-96
2021/05/10 09:42:03;;;;;;;1.23;0.93;;;19.10;61.90;;;;;;5011968;28;20044;-96
2021/05/10 09:44:40;;;;;;;1.45;0.90;;;19.10;61.70;;;;;;5037049;28;20022;-96
2021/05/10 09:47:05;;;;;;;0.93;0.70;;;19.20;61.60;;;;;;5036775;28;20029;-96
2021/05/10 09:49:49;;;;;;;1.50;1.30;;;19.30;61.30;;;;;;5021058;28;20029;-96
2021/05/10 09:52:22;;;;;;;1.77;1.30;;;19.30;60.90;;;;;;5037509;28;20022;-96
2021/05/10 09:55:00;;;;;;;1.80;1.10;;;19.30;60.90;;;;;;5018925;28;20014;-96
2021/05/10 09:57:26;;;;;;;1.67;1.30;;;19.30;60.80;;;;;;5019076;28;20029;-96
2021/05/10 10:00:18;;;;;;;2.10;1.30;;;19.20;60.50;;;;;;5038922;28;20039;-96
2021/05/10 10:02:44;;;;;;;1.30;1.20;;;19.30;60.50;;;;;;5038364;28;20029;-96
2021/05/10 10:05:10;;;;;;;1.85;1.30;;;19.20;60.30;;;;;;5037624;28;20017;-96
2021/05/10 10:07:39;;;;;;;1.20;1.08;;;19.30;60.40;;;;;;5037493;28;20022;-96
2021/05/10 10:10:06;;;;;;;1.75;1.40;;;19.30;60.50;;;;;;5020136;28;20018;-96
2021/05/10 10:12:32;;;;;;;1.00;0.93;;;19.30;60.40;;;;;;5036682;28;20025;-96
2021/05/10 10:14:58;;;;;;;2.60;1.40;;;19.20;60.50;;;;;;5036333;28;20093;-96
2021/05/10 10:17:25;;;;;;;2.28;1.40;;;19.10;60.50;;;;;;5036727;28;20068;-96
2021/05/10 10:19:53;;;;;;;2.33;1.08;;;19.10;60.90;;;;;;5037628;28;20033;-96
2021/05/10 10:22:21;;;;;;;0.85;0.80;;;19.10;61.00;;;;;;5037152;28;20196;-96
2021/05/10 10:24:48;;;;;;;1.20;1.00;;;19.20;61.00;;;;;;5018775;28;20258;-96
2021/05/10 10:27:14;;;;;;;1.70;1.10;;;19.20;61.10;;;;;;5037061;28;20349;-96
2021/05/10 10:29:42;;;;;;;1.48;1.08;;;19.20;61.00;;;;;;5018578;28;20104;-96
2021/05/10 10:32:10;;;;;;;1.30;0.90;;;19.20;61.00;;;;;;5035450;28;20420;-96
2021/05/10 10:34:45;;;;;;;1.23;1.10;;;19.10;61.00;;;;;;5036479;28;20028;-96
2021/05/10 10:37:11;;;;;;;1.52;1.42;;;19.00;61.20;;;;;;5021550;28;20017;-96
2021/05/10 10:39:50;;;;;;;1.20;1.10;;;18.90;61.80;;;;;;5035389;28;20530;-96
2021/05/10 10:42:30;;;;;;;1.45;1.30;;;18.80;62.10;;;;;;5017232;28;20112;-96
2021/05/10 10:44:58;;;;;;;1.23;1.00;;;18.70;62.80;;;;;;5015953;28;20025;-96
2021/05/10 10:47:44;;;;;;;1.85;1.70;;;18.60;63.30;;;;;;5033953;28;20017;-96
2021/05/10 10:50:15;;;;;;;1.38;1.27;;;18.50;64.10;;;;;;5016618;28;20038;-96
2021/05/10 10:52:53;;;;;;;1.73;1.60;;;18.40;64.50;;;;;;5016719;28;20025;-96
2021/05/10 10:55:23;;;;;;;1.95;1.70;;;18.50;65.30;;;;;;5016406;28;20025;-96
2021/05/10 10:57:49;;;;;;;1.95;1.67;;;18.40;64.90;;;;;;5015753;28;20022;-96
2021/05/10 11:00:17;;;;;;;1.83;1.70;;;18.40;65.10;;;;;;5033583;28;20025;-96
2021/05/10 11:02:51;;;;;;;1.60;1.35;;;18.40;65.10;;;;;;5018211;28;20106;-96
2021/05/10 11:05:29;;;;;;;2.55;1.80;;;18.50;65.10;;;;;;5017698;28;20060;-96
2021/05/10 11:08:07;;;;;;;1.90;1.70;;;18.40;65.50;;;;;;5036645;28;20028;-96
2021/05/10 11:10:44;;;;;;;1.85;1.50;;;18.50;65.80;;;;;;5015333;28;20108;-96
2021/05/10 11:13:30;;;;;;;1.80;1.70;;;18.60;65.60;;;;;;5017740;28;20033;-96
2021/05/10 11:16:05;;;;;;;2.13;1.40;;;18.60;65.60;;;;;;5032791;28;20021;-96
2021/05/10 11:18:49;;;;;;;1.90;1.80;;;18.70;65.50;;;;;;5015925;28;20026;-96
2021/05/10 11:21:26;;;;;;;2.00;1.80;;;18.90;65.40;;;;;;5015062;28;20041;-96
2021/05/10 11:23:52;;;;;;;2.78;1.70;;;18.90;65.60;;;;;;5032405;28;20033;-96
2021/05/10 11:26:37;;;;;;;2.45;2.22;;;18.70;65.70;;;;;;5032183;28;20029;-96
2021/05/10 11:29:04;;;;;;;2.22;2.03;;;18.50;66.10;;;;;;5033957;28;20037;-96
2021/05/10 11:31:36;;;;;;;2.72;2.10;;;18.30;66.60;;;;;;5036395;28;20277;-96
2021/05/10 11:34:08;;;;;;;2.55;1.73;;;18.20;67.00;;;;;;5023372;28;20224;-95
2021/05/10 11:36:38;;;;;;;1.85;1.73;;;18.10;67.30;;;;;;5023620;28;20013;-96
2021/05/10 11:39:09;;;;;;;1.85;1.65;;;18.10;67.50;;;;;;5035941;28;20085;-96
2021/05/10 11:41:35;;;;;;;2.40;1.63;;;18.00;67.90;;;;;;5017653;28;20053;-96
2021/05/10 11:44:04;;;;;;;1.60;1.50;;;17.80;68.20;;;;;;5034487;28;20014;-96
2021/05/10 11:46:42;;;;;;;1.77;1.40;;;17.80;68.40;;;;;;5034853;28;20025;-96
2021/05/10 11:49:22;;;;;;;1.35;1.25;;;17.60;68.90;;;;;;5017528;28;20068;-96
2021/05/10 11:51:49;;;;;;;3.17;1.63;;;17.50;69.10;;;;;;5035150;28;20026;-96
2021/05/10 11:54:15;;;;;;;1.20;1.10;;;17.40;69.60;;;;;;5034493;28;20030;-96
2021/05/10 11:56:45;;;;;;;1.10;1.00;;;17.30;69.70;;;;;;5035168;28;20034;-95
2021/05/10 12:01:49;;;;;;;1.33;1.20;;;17.50;69.20;;;;;;5034927;28;20747;-96
2021/05/10 12:04:25;;;;;;;1.55;1.40;;;17.60;69.30;;;;;;5034201;28;20017;-96
2021/05/10 12:06:51;;;;;;;1.40;1.10;;;17.70;69.00;;;;;;5034414;28;20023;-96
2021/05/10 12:09:32;;;;;;;1.58;1.42;;;17.90;68.50;;;;;;5035031;28;20014;-96
2021/05/10 12:11:59;;;;;;;3.20;1.30;;;18.10;68.10;;;;;;5017430;28;20039;-96
2021/05/10 12:14:25;;;;;;;1.23;1.00;;;18.30;67.90;;;;;;5035315;28;20041;-96
2021/05/10 12:17:08;;;;;;;1.20;1.10;;;18.60;67.50;;;;;;5017292;28;20079;-96
2021/05/10 12:20:02;;;;;;;1.33;1.23;;;18.90;67.40;;;;;;5035762;28;20547;-96
2021/05/10 12:22:28;;;;;;;2.17;1.23;;;19.00;66.70;;;;;;5020760;28;20026;-96
2021/05/10 12:25:27;;;;;;;1.90;1.58;;;19.20;66.30;;;;;;5037077;28;20021;-96
2021/05/10 12:28:16;;;;;;;1.88;1.60;;;19.30;66.10;;;;;;5038547;28;20033;-96
2021/05/10 12:30:41;;;;;;;1.40;1.30;;;19.50;66.10;;;;;;5023258;28;20022;-96
2021/05/10 12:33:11;;;;;;;1.95;1.70;;;19.70;65.60;;;;;;5039208;28;20315;-96
2021/05/10 12:35:44;;;;;;;2.03;1.70;;;19.80;65.20;;;;;;5036696;28;20472;-96
2021/05/10 12:38:10;;;;;;;1.42;1.33;;;20.00;64.90;;;;;;5019030;28;20057;-96
2021/05/10 12:40:44;;;;;;;1.60;1.50;;;20.10;64.40;;;;;;5036225;28;20057;-96
2021/05/10 12:43:21;;;;;;;1.80;1.65;;;20.20;64.90;;;;;;5036324;28;20503;-96
2021/05/10 12:46:06;;;;;;;1.70;1.60;;;20.20;63.30;;;;;;5034985;28;20079;-96
2021/05/10 12:48:41;;;;;;;2.72;1.92;;;20.10;63.30;;;;;;5035723;28;20060;-96
2021/05/10 12:51:15;;;;;;;2.10;1.67;;;20.10;63.20;;;;;;5018787;28;20021;-96
2021/05/10 12:53:41;;;;;;;1.73;1.10;;;20.20;63.10;;;;;;5019305;28;20399;-96
2021/05/10 12:56:10;;;;;;;1.42;1.33;;;20.20;62.70;;;;;;5019518;28;20469;-95
2021/05/10 12:58:44;;;;;;;3.67;2.28;;;20.20;62.70;;;;;;5043534;28;20024;-96
2021/05/10 13:01:22;;;;;;;2.10;1.65;;;20.30;62.50;;;;;;5017883;28;20080;-96